createdAt,value
2023-02-26T00:02:49.844Z,3.32
2023-02-26T00:07:51.168Z,3.31
2023-02-26T00:12:52.636Z,3.30
2023-02-26T00:18:10.457Z,3.23
2023-02-26T00:23:14.469Z,3.09
2023-02-26T00:28:16.023Z,2.91
2023-02-26T00:33:17.651Z,2.78
2023-02-26T00:38:19.292Z,2.69
2023-02-26T00:43:26.083Z,2.82
2023-02-26T00:48:55.609Z,2.87
2023-02-26T00:54:09.561Z,2.87
2023-02-26T00:59:10.981Z,2.94
2023-02-26T01:04:13.697Z,3.02
2023-02-26T01:09:26.941Z,3.08
2023-02-26T01:14:29.599Z,3.05
2023-02-26T01:19:46.846Z,3.12
2023-02-26T01:25:06.836Z,3.17
2023-02-26T01:30:09.679Z,3.19
2023-02-26T01:35:35.679Z,3.27
2023-02-26T01:41:07.566Z,3.19
2023-02-26T01:46:18.658Z,3.09
2023-02-26T01:51:48.018Z,3.08
2023-02-26T01:56:56.898Z,3.00
2023-02-26T02:02:02.120Z,3.04
2023-02-26T02:07:05.217Z,3.13
2023-02-26T02:12:15.521Z,3.19
2023-02-26T02:17:34.396Z,3.24
2023-02-26T02:22:45.961Z,3.06
2023-02-26T02:28:06.295Z,3.09
2023-02-26T02:33:14.958Z,3.08
2023-02-26T02:38:24.942Z,3.06
2023-02-26T02:43:32.393Z,3.00
2023-02-26T02:48:42.285Z,2.94
2023-02-26T02:53:49.772Z,2.77
2023-02-26T02:59:03.794Z,2.67
2023-02-26T03:04:11.522Z,2.64
2023-02-26T03:09:13.018Z,2.58
2023-02-26T03:14:15.642Z,2.51
2023-02-26T03:19:49.270Z,2.36
2023-02-26T03:25:09.322Z,2.17
2023-02-26T03:30:16.148Z,2.03
2023-02-26T03:35:25.039Z,1.96
2023-02-26T03:40:35.583Z,1.92
2023-02-26T03:45:39.591Z,1.95
2023-02-26T03:50:51.107Z,1.86
2023-02-26T03:56:24.929Z,1.79
2023-02-26T04:01:48.987Z,1.82
2023-02-26T04:06:53.466Z,1.84
2023-02-26T04:11:57.083Z,1.76
2023-02-26T04:16:58.574Z,1.77
2023-02-26T04:21:59.983Z,1.77
2023-02-26T04:27:01.404Z,1.81
2023-02-26T04:32:02.986Z,1.83
2023-02-26T04:37:04.696Z,1.80
2023-02-26T04:42:06.072Z,1.74
2023-02-26T04:47:07.520Z,1.75
2023-02-26T04:52:08.946Z,1.75
2023-02-26T04:57:10.420Z,1.72
2023-02-26T05:02:11.803Z,1.67
2023-02-26T05:07:13.144Z,1.68
2023-02-26T05:12:14.566Z,1.69
2023-02-26T05:17:15.910Z,1.72
2023-02-26T05:22:17.481Z,1.75
2023-02-26T05:27:18.846Z,1.76
2023-02-26T05:32:20.296Z,1.79
2023-02-26T05:37:21.723Z,1.73
2023-02-26T05:42:23.126Z,1.79
2023-02-26T05:47:25.274Z,1.85
2023-02-26T05:52:26.703Z,1.88
2023-02-26T05:57:28.102Z,1.97
2023-02-26T06:02:29.488Z,2.04
2023-02-26T06:07:30.928Z,2.11
2023-02-26T06:12:32.270Z,2.11
2023-02-26T06:17:34.393Z,2.21
2023-02-26T06:22:35.825Z,2.21
2023-02-26T06:27:37.219Z,2.13
2023-02-26T06:32:38.686Z,2.12
2023-02-26T06:37:40.088Z,2.07
2023-02-26T06:42:41.447Z,2.05
2023-02-26T06:47:42.846Z,1.98
2023-02-26T06:52:44.241Z,1.93
2023-02-26T06:57:45.664Z,1.90
2023-02-26T07:02:47.229Z,1.92
2023-02-26T07:07:48.571Z,1.99
2023-02-26T07:12:50.004Z,2.04
2023-02-26T07:17:51.355Z,2.06
2023-02-26T07:22:52.781Z,2.16
2023-02-26T07:27:54.823Z,2.24
2023-02-26T07:32:56.395Z,2.36
2023-02-26T07:37:57.989Z,2.34
2023-02-26T07:42:59.400Z,2.47
2023-02-26T07:48:00.850Z,2.58
2023-02-26T07:53:02.262Z,2.65
2023-02-26T07:58:03.641Z,2.75
2023-02-26T08:03:05.018Z,2.72
2023-02-26T08:08:06.430Z,2.87
2023-02-26T08:13:07.956Z,2.98
2023-02-26T08:18:10.140Z,3.03
2023-02-26T08:23:11.559Z,3.02
2023-02-26T08:28:13.262Z,3.13
2023-02-26T08:33:14.619Z,3.15
2023-02-26T08:38:16.080Z,3.14
2023-02-26T08:43:17.910Z,3.28
2023-02-26T08:48:19.907Z,3.43
2023-02-26T08:53:21.437Z,3.44
2023-02-26T08:58:22.869Z,3.63
2023-02-26T09:03:24.373Z,3.63
2023-02-26T09:08:25.938Z,3.67
2023-02-26T09:13:27.437Z,3.67
2023-02-26T09:18:28.840Z,3.70
2023-02-26T09:23:30.283Z,3.88
2023-02-26T09:28:31.718Z,4.08
2023-02-26T09:33:33.537Z,4.17
2023-02-26T09:38:37.848Z,4.14
2023-02-26T09:43:59.868Z,4.19
2023-02-26T09:49:19.477Z,4.16
2023-02-26T09:54:29.792Z,4.34
2023-02-26T09:59:34.172Z,4.33
2023-02-26T10:04:59.745Z,4.47
2023-02-26T10:10:31.249Z,4.49
2023-02-26T10:15:42.193Z,4.61
2023-02-26T10:21:01.807Z,4.62
2023-02-26T10:26:12.288Z,4.66
2023-02-26T10:31:34.928Z,4.79
2023-02-26T10:37:20.790Z,4.69
2023-02-26T10:42:33.685Z,4.71
2023-02-26T10:47:56.657Z,4.77
2023-02-26T10:52:58.446Z,4.85
2023-02-26T10:58:15.881Z,4.77
2023-02-26T11:03:27.140Z,4.92
2023-02-26T11:08:33.800Z,4.97
2023-02-26T11:13:38.108Z,5.00
2023-02-26T11:18:43.901Z,5.08
2023-02-26T11:23:46.279Z,5.41
2023-02-26T11:28:50.021Z,5.61
2023-02-26T11:33:57.132Z,5.91
2023-02-26T11:39:21.641Z,5.92
2023-02-26T11:44:45.460Z,5.99
2023-02-26T11:49:52.994Z,6.11
2023-02-26T11:55:01.315Z,6.12
2023-02-26T12:00:24.772Z,6.31
2023-02-26T12:05:26.438Z,6.37
2023-02-26T12:11:08.970Z,6.47
2023-02-26T12:16:25.376Z,6.48
2023-02-26T12:21:48.882Z,6.60
2023-02-26T12:27:17.594Z,6.53
2023-02-26T12:32:46.004Z,6.38
2023-02-26T12:38:18.415Z,6.59
2023-02-26T12:43:50.530Z,6.67
2023-02-26T12:48:54.887Z,7.05
2023-02-26T12:54:00.050Z,7.28
2023-02-26T12:59:20.212Z,7.39
2023-02-26T13:04:49.465Z,7.45
2023-02-26T13:10:07.414Z,7.53
2023-02-26T13:15:18.776Z,7.38
2023-02-26T13:20:24.723Z,7.38
2023-02-26T13:25:51.710Z,7.20
2023-02-26T13:30:56.376Z,7.13
2023-02-26T13:36:00.462Z,7.08
2023-02-26T13:41:22.266Z,6.93
2023-02-26T13:46:48.024Z,6.89
2023-02-26T13:51:53.580Z,6.82
2023-02-26T13:57:25.892Z,6.98
2023-02-26T14:02:36.911Z,7.21
2023-02-26T14:08:09.880Z,7.40
2023-02-26T14:13:18.698Z,7.72
2023-02-26T14:18:40.261Z,7.83
2023-02-26T14:23:41.871Z,8.09
2023-02-26T14:28:55.827Z,8.38
2023-02-26T14:34:21.587Z,7.98
2023-02-26T14:39:25.028Z,7.82
2023-02-26T14:44:31.012Z,7.67
2023-02-26T14:49:36.762Z,7.87
2023-02-26T14:54:57.405Z,7.70
2023-02-26T15:00:12.607Z,7.47
2023-02-26T15:05:13.950Z,7.27
2023-02-26T15:10:28.614Z,7.52
2023-02-26T15:16:04.688Z,7.54
2023-02-26T15:21:24.534Z,7.18
2023-02-26T15:26:30.784Z,6.91
2023-02-26T15:31:57.987Z,6.68
2023-02-26T15:37:00.522Z,6.52
2023-02-26T15:42:04.886Z,6.42
2023-02-26T15:47:06.673Z,6.27
2023-02-26T15:52:15.485Z,6.09
2023-02-26T15:57:19.887Z,6.34
2023-02-26T16:02:26.856Z,6.42
2023-02-26T16:07:28.238Z,6.28
2023-02-26T16:12:40.416Z,6.07
2023-02-26T16:17:48.826Z,5.97
2023-02-26T16:22:56.047Z,5.80
2023-02-26T16:28:00.960Z,5.78
2023-02-26T16:33:04.476Z,5.79
2023-02-26T16:38:17.111Z,5.69
2023-02-26T16:43:43.209Z,5.47
2023-02-26T16:48:48.952Z,5.40
2023-02-26T16:53:58.093Z,5.24
2023-02-26T16:59:12.664Z,5.07
2023-02-26T17:04:17.413Z,5.02
2023-02-26T17:09:38.535Z,4.93
2023-02-26T17:14:42.629Z,4.88
2023-02-26T17:19:44.043Z,4.74
2023-02-26T17:24:47.622Z,4.67
2023-02-26T17:29:51.289Z,4.58
2023-02-26T17:34:53.892Z,4.58
2023-02-26T17:39:57.655Z,4.52
2023-02-26T17:44:59.923Z,4.46
2023-02-26T17:50:01.403Z,4.50
2023-02-26T17:55:02.870Z,4.45
2023-02-26T18:00:05.458Z,4.47
2023-02-26T18:05:07.306Z,4.37
2023-02-26T18:10:17.207Z,4.41
2023-02-26T18:15:18.659Z,4.39
2023-02-26T18:20:22.439Z,4.36
2023-02-26T18:25:25.052Z,4.35
2023-02-26T18:30:34.089Z,4.31
2023-02-26T18:35:35.668Z,4.28
2023-02-26T18:40:37.069Z,4.24
2023-02-26T18:45:40.301Z,4.22
2023-02-26T18:50:43.041Z,4.24
2023-02-26T18:55:45.238Z,4.22
2023-02-26T19:00:47.205Z,4.12
2023-02-26T19:05:59.345Z,4.08
2023-02-26T19:11:00.923Z,4.02
2023-02-26T19:16:02.401Z,3.95
2023-02-26T19:21:05.758Z,3.94
2023-02-26T19:26:08.558Z,3.90
2023-02-26T19:31:10.360Z,3.90
2023-02-26T19:36:11.890Z,3.87
2023-02-26T19:41:14.199Z,3.79
2023-02-26T19:46:15.943Z,3.76
2023-02-26T19:51:18.552Z,3.68
2023-02-26T19:56:19.908Z,3.53
2023-02-26T20:01:21.314Z,3.44
2023-02-26T20:06:22.769Z,3.34
2023-02-26T20:11:24.702Z,3.34
2023-02-26T20:16:26.459Z,3.24
2023-02-26T20:21:28.522Z,3.17
2023-02-26T20:26:30.236Z,3.16
2023-02-26T20:31:31.843Z,3.11
2023-02-26T20:36:33.618Z,2.96
2023-02-26T20:41:35.008Z,2.82
2023-02-26T20:46:38.722Z,2.75
2023-02-26T20:51:41.600Z,2.70
2023-02-26T20:56:43.984Z,2.66
2023-02-26T21:01:47.045Z,2.66
2023-02-26T21:06:48.386Z,2.52
2023-02-26T21:11:50.530Z,2.45
2023-02-26T21:16:53.768Z,2.40
2023-02-26T21:21:55.145Z,2.35
2023-02-26T21:26:56.647Z,2.35
2023-02-26T21:32:03.086Z,2.35
2023-02-26T21:37:10.281Z,2.33
2023-02-26T21:42:12.699Z,2.36
2023-02-26T21:47:14.023Z,2.45
2023-02-26T21:52:15.608Z,2.45
2023-02-26T21:57:16.910Z,2.46
2023-02-26T22:02:18.301Z,2.46
2023-02-26T22:07:19.831Z,2.42
2023-02-26T22:12:21.372Z,2.41
2023-02-26T22:17:23.654Z,2.40
2023-02-26T22:22:26.853Z,2.37
2023-02-26T22:27:28.168Z,2.30
2023-02-26T22:32:29.738Z,2.27
2023-02-26T22:37:31.438Z,2.29
2023-02-26T22:42:32.781Z,2.25
2023-02-26T22:47:35.101Z,2.26
2023-02-26T22:52:36.462Z,2.26
2023-02-26T22:57:37.886Z,2.29
2023-02-26T23:02:39.259Z,2.29
2023-02-26T23:07:41.301Z,2.26
2023-02-26T23:12:43.741Z,2.24
2023-02-26T23:17:45.086Z,2.18
2023-02-26T23:22:46.505Z,2.21
2023-02-26T23:27:47.876Z,2.18
2023-02-26T23:32:49.889Z,2.16
2023-02-26T23:37:51.298Z,2.15
2023-02-26T23:42:52.940Z,2.13
2023-02-26T23:47:54.422Z,2.13
2023-02-26T23:52:55.749Z,2.18
2023-02-26T23:57:57.642Z,2.20
